Tiempo atmosférico en la estación meteorológica de Zumaia, Gipuzkoa (28 m.)



Fecha
DESCASC
Temp. máxima en grados centígrados (hora)
DESCASC
Temp. mínima en grados centígrados (hora)
DESCASC
Temp. media en grados centígrados
DESCASC
Racha de viento máxima en m/sg (hora)
DESCASC
Velocidad máxima media en intervalos de 10 minutos(hora)
DESCASC
Precipitaciones diarias en mm
DESCASC
Precipitaciones de 00:00 a 06:00 en mm
DESCASC
Precipitaciones de 06:00 a 12:00 en mm
DESCASC
Precipitaciones de 12:00 a 18:00 en mm
DESCASC
Precipitaciones de 18:00 a 24:00 en mm
DESCASC
28-02-2021 13.4 (16:00) 6.6 (06:00) 10 9.17 (23:00) 5.28 (23:00) 1.5 0 0 0 1.5
27-02-2021 13.1 (14:10) 8.9 (23:59) 11 10.28 (08:20) 7.78 (08:20) 0 0 0 0 0
26-02-2021 15.6 (15:00) 11.8 (23:30) 13.7 5 (06:50) 3.89 (07:10) 0 0 0 0 0
25-02-2021 17.7 (00:10) 12.5 (00:00) 15.1 16.67 (10:00) 9.72 (10:00) 0 0 0 0 0
24-02-2021 22.3 (15:30) 15.3 (00:00) 18.8 17.5 (13:30) 10 (13:00) 0 0 0 0 0
23-02-2021 20.4 (15:40) 7.3 (00:00) 13.8 17.22 (12:10) 9.72 (13:00) 0.2 0 0.2 0 0
22-02-2021 12.6 (15:30) 8.8 (00:00) 10.7 12.22 (07:20) 5.56 (16:10) 29.1 15.1 12.2 1.8 0
21-02-2021 20.8 (12:50) 10.1 (00:00) 15.4 21.39 (00:20) 12.5 (00:30) 2.5 0 0 0 2.5
20-02-2021 24.3 (15:00) 17.7 (00:00) 21 26.39 (08:40) 14.17 (08:00) 0 0 0 0 0
19-02-2021 23.7 (15:20) 10 (00:00) 16.9 20.83 (09:40) 13.06 (10:20) 0 0 0 0 0
18-02-2021 20.4 (11:40) 10.4 (00:00) 15.4 17.22 (01:20) 9.17 (03:50) 0 0 0 0 0
17-02-2021 22.4 (15:10) 7.8 (00:00) 15.1 14.72 (22:30) 7.5 (22:30) 0.2 0 0 0.2 0
16-02-2021 21.1 (13:20) 9.8 (00:00) 15.5 20.83 (03:50) 12.78 (09:40) 2.5 0 0 0 2.5
15-02-2021 19.1 (14:30) 12.3 (00:00) 15.7 23.61 (02:10) 16.11 (02:10) 0 0 0 0 0
14-02-2021 19.8 (14:30) 7.3 (00:00) 13.5 24.17 (23:30) 15.56 (23:30) 0 0 0 0 0
13-02-2021 15.5 (16:10) 7.8 (00:00) 11.7 4.72 (10:10) 3.61 (10:10) 0 0 0 0 0
12-02-2021 18.4 (05:10) 12.1 (00:00) 15.3 20 (14:50) 12.78 (14:50) 14.4 0 6.9 6.8 0.7
11-02-2021 21.4 (13:50) 6.4 (00:00) 13.9 6.67 (13:20) 4.44 (13:20) 0 0 0 0 0
10-02-2021 13.4 (16:50) 9.1 (00:00) 11.3 16.11 (14:00) 8.89 (17:20) 0.4 0 0.4 0 0
09-02-2021 15.7 (12:20) 9.4 (00:00) 12.5 22.22 (09:20) 13.33 (09:10) 0.5 0 0.1 0.3 0.1
08-02-2021 16.8 (14:10) 9.7 (00:00) 13.2 15.28 (01:30) 9.17 (01:30) 1.1 0.4 0.4 0 0.3
07-02-2021 14.4 (14:20) 8 (00:00) 11.2 11.39 (23:59) 6.67 (23:59) 1.6 0.2 0.6 0.1 0.7
06-02-2021 12.7 (12:00) 8.4 (00:00) 10.5 21.11 (13:20) 15.83 (13:20) 22.1 0.9 4.8 15 1.4
05-02-2021 14.2 (13:00) 11.4 (00:00) 12.8 5.28 (15:00) 3.89 (14:50) 1 0.4 0.6 0 0
04-02-2021 16.3 (05:20) 11.6 (00:00) 13.9 11.39 (00:20) 6.11 (00:10) 1.4 0 0 0 1.4
03-02-2021 19.8 (10:00) 12.8 (00:00) 16.3 20.83 (00:40) 11.67 (04:10) 0 0 0 0 0
02-02-2021 22.2 (14:50) 12.4 (00:00) 17.3 15 (18:30) 10.28 (20:50) 0.4 0 0 0.4 0
01-02-2021 16.1 (00:10) 12.6 (00:00) 14.4 24.72 (00:50) 14.44 (13:40) 3 0 0 0 3

Gráficas

Temp. máximas Temp. mínimas Temp. medias Precipitaciones Rachas de viento máximas Velocidades máximas media en intervalos de 10 minutos

Datos horarios

Fecha y hora oficial Temperatura (ºC) Velocidad del viento (km/h) Dirección del viento Racha (km/h) Dirección de racha Precipitación (mm) Presión (hPa) Tendencia (hPa) Humedad (%)
2021-03-02 23:00:00 15.3 30 Sur 51 Sur 0 -- -- 55
2021-03-02 22:00:00 15.3 26 Sur 43 Sur 0 -- -- 55
2021-03-02 21:00:00 16 18 Sur 44 Sur 0 -- -- 54
2021-03-02 20:00:00 16.4 22 Sur 44 Sur 0 -- -- 52
2021-03-02 19:00:00 16.9 21 Sur 41 Sur 0 -- -- 51
2021-03-02 18:00:00 17.5 15 Sur 51 Sur 0 -- -- 50
2021-03-02 17:00:00 18 27 Sur 53 Sur 0 -- -- 48
2021-03-02 16:00:00 18.5 30 Sur 63 Sur 0 -- -- 48
2021-03-02 15:00:00 19.2 31 Sur 65 Sur 0 -- -- 49
2021-03-02 14:00:00 18.4 35 Sur 63 Sur 0 -- -- 49
2021-03-02 13:00:00 18.2 30 Sur 60 Sur 0 -- -- 51
2021-03-02 12:00:00 18.3 31 Sur 63 Sur 0 -- -- 51
2021-03-02 11:00:00 16.3 39 Sur 72 Sur 0 -- -- 56
2021-03-02 10:00:00 14.7 39 Sur 65 Sur 0 -- -- 59
2021-03-02 09:00:00 14.2 37 Sur 67 Sur 0 -- -- 59
2021-03-02 08:00:00 14.1 35 Sur 71 Sudoeste 0 -- -- 59
2021-03-02 07:00:00 14.4 32 Sur 57 Sur 0 -- -- 56
2021-03-02 06:00:00 14.7 34 Sur 54 Sur 0 -- -- 58
2021-03-02 05:00:00 14.6 25 Sur 58 Sur 0 -- -- 57
2021-03-02 04:00:00 15 32 Sur 70 Sur 0 -- -- 58
2021-03-02 03:00:00 14.5 39 Sur 76 Sur 0 -- -- 57
2021-03-02 02:00:00 15 30 Sur 59 Sudeste 0 -- -- 57
2021-03-02 01:00:00 15.4 30 Sur 63 Sur 0 -- -- 55
2021-03-02 00:00:00 15 29 Sur 55 Sudeste 0 -- -- 55
2021-03-01 23:00:00 14.8 20 Sur 40 Sur 0 -- -- 56
2021-03-01 22:00:00 14.8 21 Sudeste 38 Sudeste 0 -- -- 56
2021-03-01 21:00:00 15.6 18 Sur 50 Sudeste 0 -- -- 56
2021-03-01 20:00:00 15.4 22 Sur 37 Sur 0 -- -- 54
2021-03-01 19:00:00 15.6 12 Sudeste 33 Sudeste 0 -- -- 54
2021-03-01 18:00:00 15.7 6 Sudeste 36 Sur 0 -- -- 54
2021-03-01 17:00:00 16.2 19 Sur 48 Sur 0 -- -- 53
2021-03-01 16:00:00 16.1 30 Sur 51 Sur 0 -- -- 50
2021-03-01 15:00:00 16.7 29 Sur 55 Sur 0 -- -- 50
2021-03-01 14:00:00 16.2 30 Sur 57 Sudoeste 0 -- -- 52
2021-03-01 13:00:00 15.9 25 Sur 67 Sudeste 0 -- -- 50
2021-03-01 12:00:00 17.4 29 Sudeste 67 Sudoeste 0 -- -- 50
2021-03-01 11:00:00 16 40 Sur 69 Sudeste 0 -- -- 50
2021-03-01 10:00:00 14.8 33 Sur 60 Sur 0 -- -- 52
2021-03-01 09:00:00 14 34 Sur 69 Sudeste 0 -- -- 55
2021-03-01 08:00:00 13.3 18 Sur 48 Sur 0 -- -- 58
2021-03-01 07:00:00 12.3 20 Sur 35 Sur 0 -- -- 64
2021-03-01 06:00:00 12.5 4 Sudeste 26 Sur 0 -- -- 69
2021-03-01 05:00:00 11.6 9 Sur 15 Sudoeste 0 -- -- 72
2021-03-01 04:00:00 11.6 13 Sur 29 Sur 0 -- -- 72
2021-03-01 03:00:00 10.2 10 Sudeste 19 Sur 0 -- -- 82
2021-03-01 02:00:00 10.4 12 Sur 19 Sudeste 0 -- -- 85
2021-03-01 01:00:00 10.6 9 Sur 15 Sudoeste 0 -- -- 83
2021-03-01 00:00:00 11.4 3 Sudoeste 32 Sudeste 0 -- -- 82
2021-02-28 23:00:00 12.3 19 Sudeste 33 Sudeste 0 -- -- 80
2021-02-28 22:00:00 11.8 13 Sudeste 27 Sudeste 0.2 -- -- 91
2021-02-28 21:00:00 11 8 Sudeste 21 Sudeste 0 -- -- 93
2021-02-28 20:00:00 11.6 11 Sudeste 15 Sudeste 1.1 -- -- 92
2021-02-28 19:00:00 11.9 7 Sur 10 Sur 0.2 -- -- 87
2021-02-28 18:00:00 12.6 0 Calma 14 Este 0 -- -- 85
2021-02-28 17:00:00 11.6 6 Este 18 Nordeste 0 -- -- 84
2021-02-28 16:00:00 13.2 8 Nordeste 17 Este 0 -- -- 79
2021-02-28 15:00:00 11.9 10 Este 23 Nordeste 0 -- -- 79
2021-02-28 14:00:00 12.8 13 Nordeste 20 Norte 0 -- -- 79
2021-02-28 13:00:00 11.7 10 Nordeste 15 Nordeste 0 -- -- 79
2021-02-28 12:00:00 11.6 4 Norte 9 Norte 0 -- -- 82
2021-02-28 11:00:00 10.6 0 Calma 9 Sur 0 -- -- 93
2021-02-28 10:00:00 9.3 7 Sur 10 Sur 0 -- -- 97
2021-02-28 09:00:00 8.1 8 Sur 13 Sur 0 -- -- 97
2021-02-28 08:00:00 7.9 9 Sur 14 Sur 0 -- -- 98
2021-02-28 07:00:00 6.9 9 Sur 13 Sur 0 -- -- 96
2021-02-28 06:00:00 6.6 10 Sur 12 Sudoeste 0 -- -- 95
2021-02-28 05:00:00 7.4 8 Sur 11 Sur 0 -- -- 96
2021-02-28 04:00:00 6.9 8 Sur 12 Sur 0 -- -- 93
2021-02-28 03:00:00 7.5 9 Sur 12 Sur 0 -- -- 92
2021-02-28 02:00:00 8 9 Sur 12 Sur 0 -- -- 91
2021-02-28 01:00:00 8.5 6 Sur 10 Sur 0 -- -- 88
2021-02-28 00:00:00 9.2 6 Sur 9 Sur 0 -- -- 87
2021-02-27 23:00:00 10 4 Sur 9 Sur 0 -- -- 85
2021-02-27 22:00:00 10.1 0 Calma 9 Oeste 0 -- -- 84
2021-02-27 21:00:00 10.3 0 Calma 9 Oeste 0 -- -- 83
2021-02-27 20:00:00 10.1 0 Calma 15 Norte 0 -- -- 81
2021-02-27 19:00:00 10.5 8 Norte 18 Noroeste 0 -- -- 77
2021-02-27 18:00:00 11 12 Noroeste 21 Noroeste 0 -- -- 73
2021-02-27 17:00:00 12.1 9 Noroeste 19 Noroeste 0 -- -- 72
2021-02-27 16:00:00 12.7 12 Noroeste 22 Noroeste 0 -- -- 72
2021-02-27 15:00:00 11.9 13 Noroeste 18 Noroeste 0 -- -- 75
2021-02-27 14:00:00 12.4 5 Noroeste 19 Norte 0 -- -- 81
2021-02-27 13:00:00 10.9 9 Norte 24 Norte 0 -- -- 87
2021-02-27 12:00:00 10.9 10 Nordeste 21 Nordeste 0 -- -- 89
2021-02-27 11:00:00 10.8 14 Nordeste 26 Nordeste 0 -- -- 91
2021-02-27 10:00:00 10.7 17 Nordeste 34 Nordeste 0 -- -- 93
2021-02-27 09:00:00 11.3 25 Nordeste 37 Nordeste 0 -- -- 95
2021-02-27 08:00:00 12 20 Nordeste 28 Nordeste 0 -- -- 95
2021-02-27 07:00:00 12.5 15 Nordeste 21 Nordeste 0 -- -- 95
2021-02-27 06:00:00 12 2 Este 7 Este 0 -- -- 93
2021-02-27 05:00:00 12 3 Sur 10 Noroeste 0 -- -- 92
2021-02-27 04:00:00 11.8 4 Noroeste 11 Noroeste 0 -- -- 92
2021-02-27 03:00:00 11.7 4 Sur 6 Sur 0 -- -- 92
2021-02-27 02:00:00 12 0 Calma 5 Sur 0 -- -- 91
2021-02-27 01:00:00 12 0 Calma 14 Nordeste 0 -- -- 90
2021-02-27 00:00:00 12.2 7 Este 11 Este 0 -- -- 90
2021-02-26 23:00:00 12 7 Este 10 Este 0 -- -- 91
2021-02-26 22:00:00 12.3 5 Norte 8 Noroeste 0 -- -- 90
2021-02-26 21:00:00 12.3 0 Calma 5 Norte 0 -- -- 89
2021-02-26 20:00:00 12.7 0 Calma 6 Norte 0 -- -- 89
2021-02-26 19:00:00 13.1 0 Calma 8 Norte 0 -- -- 89
2021-02-26 18:00:00 13 7 Nordeste 10 Norte 0 -- -- 85
2021-02-26 17:00:00 14 5 Norte 8 Norte 0 -- -- 83
2021-02-26 16:00:00 14.6 5 Nordeste 12 Nordeste 0 -- -- 83
2021-02-26 15:00:00 15.6 8 Nordeste 12 Nordeste 0 -- -- 83
2021-02-26 14:00:00 15.4 5 Nordeste 10 Norte 0 -- -- 83
2021-02-26 13:00:00 14.7 4 Nordeste 12 Nordeste 0 -- -- 84
2021-02-26 12:00:00 13.4 8 Nordeste 15 Nordeste 0 -- -- 90
2021-02-26 11:00:00 13.2 12 Nordeste 17 Nordeste 0 -- -- 94
2021-02-26 10:00:00 12.6 10 Nordeste 16 Nordeste 0 -- -- 94
2021-02-26 09:00:00 12.5 11 Nordeste 16 Nordeste 0 -- -- 95
2021-02-26 08:00:00 12.9 12 Nordeste 17 Nordeste 0 -- -- 96
2021-02-26 07:00:00 12.6 14 Nordeste 18 Norte 0 -- -- 97
2021-02-26 06:00:00 12.4 10 Nordeste 13 Nordeste 0 -- -- 97
2021-02-26 05:00:00 12.7 8 Nordeste 14 Norte 0 -- -- 97
2021-02-26 04:00:00 12.4 12 Norte 15 Norte 0 -- -- 97
2021-02-26 03:00:00 13 6 Noroeste 11 Noroeste 0 -- -- 97
2021-02-26 02:00:00 12.5 5 Noroeste 14 Noroeste 0 -- -- 96
2021-02-26 01:00:00 12.6 5 Noroeste 13 Noroeste 0 -- -- 96
2021-02-26 00:00:00 13.1 4 Oeste 10 Noroeste 0 -- -- 96
2021-02-25 23:00:00 13.1 0 Calma 6 Noroeste 0 -- -- 95
2021-02-25 22:00:00 12.9 0 Calma 9 Oeste 0 -- -- 93
2021-02-25 21:00:00 12.8 5 Sur 7 Sur 0 -- -- 93
2021-02-25 20:00:00 12.9 0 Calma 3 Oeste 0 -- -- 92
2021-02-25 19:00:00 13.6 0 Calma 5 Noroeste 0 -- -- 93
2021-02-25 18:00:00 13.9 3 Noroeste 10 Noroeste 0 -- -- 91
2021-02-25 17:00:00 14.6 6 Noroeste 14 Noroeste 0 -- -- 88
2021-02-25 16:00:00 14.8 4 Noroeste 15 Noroeste 0 -- -- 87
2021-02-25 15:00:00 14.5 6 Noroeste 24 Noroeste 0 -- -- 85
2021-02-25 14:00:00 15.4 14 Noroeste 27 Noroeste 0 -- -- 83
2021-02-25 13:00:00 15.7 12 Noroeste 20 Noroeste 0 -- -- 77
2021-02-25 12:00:00 16.2 9 Norte 40 Sur 0 -- -- 70
2021-02-25 11:00:00 16.3 27 Sur 49 Sur 0 -- -- 55
2021-02-25 10:00:00 16.1 35 Sur 60 Sur 0 -- -- 54
2021-02-25 09:00:00 15 29 Sur 59 Sur 0 -- -- 54
2021-02-25 08:00:00 14.7 31 Sur 51 Sur 0 -- -- 54
2021-02-25 07:00:00 14.4 27 Sur 49 Sur 0 -- -- 56
2021-02-25 06:00:00 15.1 27 Sur 44 Sur 0 -- -- 57
2021-02-25 05:00:00 15.2 22 Sur 40 Sur 0 -- -- 57
2021-02-25 04:00:00 16 25 Sur 42 Sudoeste 0 -- -- 59
2021-02-25 03:00:00 16.5 27 Sur 51 Sur 0 -- -- 60
2021-02-25 02:00:00 16.7 23 Sudoeste 44 Sur 0 -- -- 59
2021-02-25 01:00:00 17.1 25 Sur 54 Sur 0 -- -- 59
2021-02-25 00:00:00 17.5 24 Sur 40 Sur 0 -- -- 57
2021-02-24 23:00:00 17.9 20 Sur 35 Sudoeste 0 -- -- 56
2021-02-24 22:00:00 18 18 Sur 41 Sur 0 -- -- 55
2021-02-24 21:00:00 17.9 28 Sur 52 Sur 0 -- -- 53
2021-02-24 20:00:00 18.7 31 Sur 55 Sur 0 -- -- 51
2021-02-24 19:00:00 18.9 23 Sur 54 Sur 0 -- -- 49
2021-02-24 18:00:00 20.7 31 Sur 54 Sur 0 -- -- 49
2021-02-24 17:00:00 21.1 27 Sur 53 Sur 0 -- -- 47
2021-02-24 16:00:00 21.4 24 Sur 57 Sur 0 -- -- 46
2021-02-24 15:00:00 22.1 23 Sur 52 Sudoeste 0 -- -- 47
2021-02-24 14:00:00 21 31 Sur 63 Sur 0 -- -- 47
2021-02-24 13:00:00 20.3 36 Sur 59 Sur 0 -- -- 50
2021-02-24 12:00:00 19.6 29 Sur 45 Sudoeste 0 -- -- 50
2021-02-24 11:00:00 18.4 26 Sur 55 Sur 0 -- -- 53
2021-02-24 10:00:00 17.3 27 Sur 54 Sur 0 -- -- 54
2021-02-24 09:00:00 16.2 24 Sur 53 Sur 0 -- -- 56
2021-02-24 08:00:00 15.7 20 Sur 45 Sudoeste 0 -- -- 57
2021-02-24 07:00:00 16.4 22 Sur 45 Sudoeste 0 -- -- 56
2021-02-24 06:00:00 16.6 29 Sur 57 Sur 0 -- -- 54
2021-02-24 05:00:00 16.2 31 Sur 57 Sur 0 -- -- 56
2021-02-24 04:00:00 16.6 27 Sur 50 Sur 0 -- -- 57
2021-02-24 03:00:00 16.1 28 Sur 53 Sur 0 -- -- 57
2021-02-24 02:00:00 16.2 32 Sur 50 Sur 0 -- -- 57
2021-02-24 01:00:00 16.4 28 Sur 49 Sur 0 -- -- 57
2021-02-24 00:00:00 16.2 24 Sur 42 Sur 0 -- -- 57
2021-02-23 23:00:00 16.1 26 Sur 46 Sudoeste 0 -- -- 56
2021-02-23 22:00:00 16.3 24 Sur 40 Sur 0 -- -- 56
2021-02-23 21:00:00 16.2 14 Sur 30 Sur 0 -- -- 55
2021-02-23 20:00:00 16.1 14 Sudeste 39 Sur 0 -- -- 53
2021-02-23 19:00:00 16.8 26 Sur 56 Sur 0 -- -- 48
2021-02-23 18:00:00 18.6 26 Sur 50 Sur 0 -- -- 45
2021-02-23 17:00:00 19.7 25 Sur 53 Sur 0 -- -- 42
2021-02-23 16:00:00 19.8 33 Sur 60 Sur 0 -- -- 41
2021-02-23 15:00:00 19.3 29 Sur 60 Sur 0 -- -- 43
2021-02-23 14:00:00 18.9 34 Sur 58 Sur 0 -- -- 47
2021-02-23 13:00:00 17.6 35 Sur 62 Sur 0 -- -- 49
2021-02-23 12:00:00 16.6 34 Sur 55 Sur 0.1 -- -- 51
2021-02-23 11:00:00 16.6 27 Sur 59 Sur 0 -- -- 53
2021-02-23 10:00:00 15.3 25 Sur 54 Sur 0 -- -- 57
2021-02-23 09:00:00 13.3 14 Sur 32 Sudeste 0 -- -- 65
2021-02-23 08:00:00 12.1 15 Sur 36 Sur 0 -- -- 68
2021-02-23 07:00:00 12.1 25 Sur 46 Sur 0.1 -- -- 70
2021-02-23 06:00:00 12.1 21 Sur 44 Sudeste 0 -- -- 76
2021-02-23 05:00:00 10.3 10 Sur 29 Sudeste 0 -- -- 89
2021-02-23 04:00:00 8.7 10 Sur 22 Sudeste 0 -- -- 98
2021-02-23 03:00:00 7.4 6 Sur 11 Sur 0 -- -- 97
2021-02-23 02:00:00 7.8 7 Sur 14 Sur 0 -- -- 96
2021-02-23 01:00:00 8.3 10 Sur 13 Sur 0 -- -- 96
2021-02-23 00:00:00 9.2 10 Sur 15 Sur 0 -- -- 96
2021-02-22 23:00:00 9.7 12 Sur 18 Sur 0 -- -- 94
2021-02-22 22:00:00 10.5 12 Sur 16 Sur 0 -- -- 94
2021-02-22 21:00:00 11.4 8 Sur 10 Sur 0 -- -- 93
2021-02-22 20:00:00 11 6 Sur 9 Sur 0 -- -- 89
2021-02-22 19:00:00 11.9 6 Noroeste 21 Noroeste 0 -- -- 88
2021-02-22 18:00:00 12.5 17 Noroeste 25 Noroeste 0 -- -- 89
2021-02-22 17:00:00 11.7 19 Noroeste 28 Noroeste 0 -- -- 90
2021-02-22 16:00:00 12.3 19 Noroeste 25 Noroeste 0 -- -- 95
2021-02-22 15:00:00 11.8 6 Sur 15 Sur 0.3 -- -- 95
2021-02-22 14:00:00 11.7 5 Sur 12 Noroeste 1 -- -- 93
2021-02-22 13:00:00 11 2 Sudoeste 26 Noroeste 0.5 -- -- 92
2021-02-22 12:00:00 11.2 0 Calma 17 Noroeste 1 -- -- 94
2021-02-22 11:00:00 10.6 5 Sudoeste 14 Sudoeste 1 -- -- 94
2021-02-22 10:00:00 10.2 4 Oeste 31 Oeste 1.1 -- -- 93
2021-02-22 09:00:00 10 9 Oeste 21 Oeste 3.1 -- -- 94
2021-02-22 08:00:00 9.6 5 Oeste 44 Noroeste 2.5 -- -- 94
2021-02-22 07:00:00 9.8 19 Noroeste 37 Noroeste 3.5 -- -- 93
2021-02-22 06:00:00 9.9 8 Oeste 28 Sudoeste 0.9 -- -- 92
2021-02-22 05:00:00 9.4 5 Oeste 21 Sudoeste 1.5 -- -- 92
2021-02-22 04:00:00 9.4 6 Oeste 23 Noroeste 1.9 -- -- 93
2021-02-22 03:00:00 9.5 6 Oeste 25 Noroeste 4.1 -- -- 94
2021-02-22 02:00:00 9.5 6 Oeste 20 Oeste 3.1 -- -- 96
2021-02-22 01:00:00 9.8 5 Oeste 27 Oeste 3.6 -- -- 96
2021-02-22 00:00:00 10.1 15 Noroeste 44 Noroeste 2.4 -- -- 95
2021-02-21 23:00:00 11 26 Noroeste 43 Noroeste 0.1 -- -- 93
2021-02-21 22:00:00 11.5 27 Noroeste 55 Noroeste 0 -- -- 94
2021-02-21 21:00:00 11.6 39 Noroeste 54 Noroeste 0 -- -- 94
2021-02-21 20:00:00 11.7 40 Noroeste 59 Noroeste 0 -- -- 93
2021-02-21 19:00:00 13.7 23 Noroeste 37 Noroeste 0 -- -- 83
2021-02-21 18:00:00 16.6 18 Sur 48 Sur 0 -- -- 53
2021-02-21 17:00:00 17 26 Sur 64 Sur 0 -- -- 51
2021-02-21 16:00:00 17.1 21 Sur 42 Sur 0 -- -- 48
2021-02-21 15:00:00 18.5 19 Sur 32 Sudoeste 0 -- -- 43
2021-02-21 14:00:00 18.5 17 Sur 40 Sur 0 -- -- 40
2021-02-21 13:00:00 20.6 21 Sur 41 Sur 0 -- -- 38
2021-02-21 12:00:00 19.9 24 Sur 42 Sur 0 -- -- 38
2021-02-21 11:00:00 18.1 17 Sur 52 Sur 0 -- -- 39
2021-02-21 10:00:00 18.1 22 Sur 41 Sudeste 0 -- -- 40
2021-02-21 09:00:00 16.2 19 Sur 33 Sudoeste 0 -- -- 42
2021-02-21 08:00:00 16.1 18 Sur 31 Sur 0 -- -- 42
2021-02-21 07:00:00 16.2 15 Sur 31 Sur 0 -- -- 40
2021-02-21 06:00:00 16.3 18 Sur 56 Sur 0 -- -- 40
2021-02-21 05:00:00 16.9 37 Sur 69 Sur 0 -- -- 40
2021-02-21 04:00:00 17.2 37 Sur 67 Sur 0 -- -- 40
2021-02-21 03:00:00 17.3 35 Sur 64 Sudoeste 0 -- -- 41
2021-02-21 02:00:00 17.6 33 Sur 64 Sur 0 -- -- 41
2021-02-21 01:00:00 18.6 33 Sur 77 Sudeste 0 -- -- 40
2021-02-21 00:00:00 19.3 35 Sur 62 Sur 0 -- -- 39
2021-02-20 23:00:00 19.3 23 Sur 51 Sur 0 -- -- 39
2021-02-20 22:00:00 20.3 30 Sur 73 Sur 0 -- -- 38
2021-02-20 21:00:00 20.3 35 Sur 61 Sur 0 -- -- 37
2021-02-20 20:00:00 20.5 27 Sur 58 Sur 0 -- -- 37
2021-02-20 19:00:00 21.1 24 Sur 66 Sudeste 0 -- -- 35
2021-02-20 18:00:00 22.7 25 Sur 47 Sur 0 -- -- 33
2021-02-20 17:00:00 23.5 31 Sur 54 Sur 0 -- -- 33
2021-02-20 16:00:00 22.5 22 Sur 58 Sudeste 0 -- -- 33
2021-02-20 15:00:00 23.6 30 Sur 63 Sur 0 -- -- 33
2021-02-20 14:00:00 22.4 32 Sur 66 Sur 0 -- -- 34
2021-02-20 13:00:00 22.9 40 Sur 69 Sur 0 -- -- 34
2021-02-20 12:00:00 21.9 33 Sur 69 Sudoeste 0 -- -- 36
2021-02-20 11:00:00 20.1 39 Sur 69 Sur 0 -- -- 37
2021-02-20 10:00:00 19.3 38 Sur 76 Sur 0 -- -- 37
2021-02-20 09:00:00 18.6 50 Sur 95 Sudoeste 0 -- -- 37
2021-02-20 08:00:00 18.6 51 Sur 85 Sur 0 -- -- 38
2021-02-20 07:00:00 18.7 29 Sur 73 Sur 0 -- -- 37
2021-02-20 06:00:00 18.3 22 Sur 67 Sur 0 -- -- 37
2021-02-20 05:00:00 18.6 28 Sur 57 Sur 0 -- -- 37
2021-02-20 04:00:00 18.5 26 Sur 50 Sur 0 -- -- 37
2021-02-20 03:00:00 19 18 Sur 41 Sudoeste 0 -- -- 36
2021-02-20 02:00:00 19.3 17 Sur 53 Sur 0 -- -- 39
2021-02-20 01:00:00 18.7 20 Sur 52 Sur 0 -- -- 38
2021-02-20 00:00:00 19 28 Sur 46 Sur 0 -- -- 38
2021-02-19 23:00:00 19 18 Sur 44 Sur 0 -- -- 39
2021-02-19 22:00:00 19.2 21 Sur 53 Sudeste 0 -- -- 38
2021-02-19 21:00:00 19.7 27 Sur 47 Sur 0 -- -- 39
2021-02-19 20:00:00 19.8 22 Sur 39 Sur 0 -- -- 39
2021-02-19 19:00:00 19.6 10 Sur 34 Sur 0 -- -- 39
2021-02-19 18:00:00 20.6 15 Sur 27 Sudeste 0 -- -- 39
2021-02-19 17:00:00 21.8 13 Sur 30 Sur 0 -- -- 38
2021-02-19 16:00:00 21.7 24 Sur 48 Sur 0 -- -- 37
2021-02-19 15:00:00 22.1 11 Sur 31 Sur 0 -- -- 36
2021-02-19 14:00:00 22.3 13 Sur 49 Sudoeste 0 -- -- 35
2021-02-19 13:00:00 21.4 30 Sudoeste 64 Sur 0 -- -- 34
2021-02-19 12:00:00 20.4 31 Sur 69 Sur 0 -- -- 37
2021-02-19 11:00:00 20.1 39 Sur 73 Sudoeste 0 -- -- 41
2021-02-19 10:00:00 18.6 41 Sur 75 Sur 0 -- -- 43
2021-02-19 09:00:00 17.8 35 Sur 68 Sudoeste 0 -- -- 44
2021-02-19 08:00:00 17.2 26 Sur 55 Sur 0 -- -- 46
2021-02-19 07:00:00 17.2 31 Sur 56 Sur 0 -- -- 49
2021-02-19 06:00:00 17.1 23 Sur 51 Sudoeste 0 -- -- 50
2021-02-19 05:00:00 16.4 12 Sur 38 Sur 0 -- -- 53
2021-02-19 04:00:00 16.9 19 Sur 50 Sudoeste 0 -- -- 53
2021-02-19 03:00:00 15.5 16 Sur 33 Sur 0 -- -- 64
2021-02-19 02:00:00 13.1 7 Sur 15 Sur 0 -- -- 81
2021-02-19 01:00:00 10.5 8 Sur 13 Sur 0 -- -- 92
2021-02-19 00:00:00 10.7 6 Sur 13 Sur 0 -- -- 91
2021-02-18 23:00:00 11 9 Sur 13 Sur 0 -- -- 92
2021-02-18 22:00:00 10.9 10 Sur 13 Sur 0 -- -- 92
2021-02-18 21:00:00 11.4 5 Sudeste 7 Sudeste 0 -- -- 90
2021-02-18 20:00:00 12.3 0 Calma 13 Noroeste 0 -- -- 88
2021-02-18 19:00:00 13 3 Nordeste 9 Norte 0 -- -- 87
2021-02-18 18:00:00 12.5 6 Norte 15 Noroeste 0 -- -- 85
2021-02-18 17:00:00 12.9 14 Noroeste 19 Noroeste 0 -- -- 85
2021-02-18 16:00:00 13.2 10 Noroeste 21 Noroeste 0 -- -- 85
2021-02-18 15:00:00 13.8 13 Noroeste 30 Noroeste 0 -- -- 81
2021-02-18 14:00:00 14.5 20 Noroeste 28 Noroeste 0 -- -- 78
2021-02-18 13:00:00 15.1 14 Noroeste 31 Oeste 0 -- -- 74
2021-02-18 12:00:00 16 22 Noroeste 42 Noroeste 0 -- -- 61
2021-02-18 11:00:00 18.3 12 Sur 29 Sur 0 -- -- 46
2021-02-18 10:00:00 16.7 14 Sur 24 Sur 0 -- -- 47
2021-02-18 09:00:00 16.5 15 Sur 28 Sur 0 -- -- 47
2021-02-18 08:00:00 16.4 9 Sur 44 Sur 0 -- -- 48
2021-02-18 07:00:00 16.6 20 Sur 45 Sur 0 -- -- 49
2021-02-18 06:00:00 16.6 23 Sur 42 Sur 0 -- -- 50
2021-02-18 05:00:00 16.7 24 Sur 53 Sur 0 -- -- 50
2021-02-18 04:00:00 17.4 32 Sur 52 Sur 0 -- -- 49
2021-02-18 03:00:00 17.3 16 Sur 52 Sur 0 -- -- 51
2021-02-18 02:00:00 17.5 27 Sur 62 Sudoeste 0 -- -- 51
2021-02-18 01:00:00 18 25 Sur 49 Sur 0 -- -- 52
2021-02-18 00:00:00 17.6 16 Sur 33 Sur 0 -- -- 52
2021-02-17 23:00:00 17.8 18 Sur 53 Sur 0 -- -- 53
2021-02-17 22:00:00 17.9 24 Sur 42 Sur 0 -- -- 53
2021-02-17 21:00:00 17.7 17 Sur 30 Sur 0 -- -- 53
2021-02-17 20:00:00 18.1 21 Sur 46 Sudoeste 0 -- -- 53
2021-02-17 19:00:00 18.2 14 Sur 31 Sur 0 -- -- 52
2021-02-17 18:00:00 18 17 Sur 40 Sur 0 -- -- 50
2021-02-17 17:00:00 18.8 15 Sur 38 Sudoeste 0 -- -- 47
2021-02-17 16:00:00 19.6 20 Sudoeste 39 Sudoeste 0 -- -- 44
2021-02-17 15:00:00 21.2 18 Sudoeste 44 Sudoeste 0 -- -- 42
2021-02-17 14:00:00 20 18 Sudoeste 39 Sudoeste 0 -- -- 45
2021-02-17 13:00:00 18.9 13 Sur 35 Sudoeste 0.2 -- -- 47
2021-02-17 12:00:00 19.4 21 Sur 40 Sur 0 -- -- 48
2021-02-17 11:00:00 18.3 19 Sur 35 Sudoeste 0 -- -- 53
2021-02-17 10:00:00 16 20 Sur 36 Sudoeste 0 -- -- 67
2021-02-17 09:00:00 12 12 Sur 19 Sur 0 -- -- 95
2021-02-17 08:00:00 10 14 Sur 19 Sur 0 -- -- 98
2021-02-17 07:00:00 9.4 2 Sudoeste 10 Sudoeste 0 -- -- 98
2021-02-17 06:00:00 8.7 4 Sur 12 Sur 0 -- -- 98
2021-02-17 05:00:00 8 10 Sur 13 Sur 0 -- -- 98
2021-02-17 04:00:00 8.4 11 Sur 17 Sur 0 -- -- 98
2021-02-17 03:00:00 8.6 14 Sur 17 Sur 0 -- -- 98
2021-02-17 02:00:00 8.7 13 Sur 16 Sur 0 -- -- 97
2021-02-17 01:00:00 9.4 10 Sur 14 Sur 0 -- -- 97
2021-02-17 00:00:00 10 11 Sur 15 Sur 0 -- -- 96
2021-02-16 23:00:00 10.7 9 Sur 15 Sur 0 -- -- 95
2021-02-16 22:00:00 11.3 10 Sur 14 Sur 0 -- -- 93
2021-02-16 21:00:00 12.3 7 Sur 13 Sudoeste 2.5 -- -- 87
2021-02-16 20:00:00 13.4 8 Sur 11 Sur 0 -- -- 77
2021-02-16 19:00:00 13.8 6 Sur 14 Sudoeste 0 -- -- 78
2021-02-16 18:00:00 14 8 Sur 14 Sudeste 0 -- -- 77
2021-02-16 17:00:00 13.6 6 Sur 15 Oeste 0 -- -- 79
2021-02-16 16:00:00 14 10 Noroeste 31 Noroeste 0 -- -- 80
2021-02-16 15:00:00 14.2 22 Noroeste 57 Noroeste 0 -- -- 75
2021-02-16 14:00:00 14.6 39 Noroeste 66 Noroeste 0 -- -- 66
2021-02-16 13:00:00 20.1 18 Sudoeste 49 Sudoeste 0 -- -- 45
2021-02-16 12:00:00 16.7 19 Sur 46 Sur 0 -- -- 51
2021-02-16 11:00:00 16.2 22 Sur 50 Sudoeste 0 -- -- 54
2021-02-16 10:00:00 15 33 Sur 69 Sur 0 -- -- 56
2021-02-16 09:00:00 14.1 40 Sur 61 Sur 0 -- -- 56
2021-02-16 08:00:00 14.1 14 Sur 51 Sur 0 -- -- 57
2021-02-16 07:00:00 14 35 Sur 64 Sur 0 -- -- 57
2021-02-16 06:00:00 14.3 28 Sur 60 Sur 0 -- -- 56
2021-02-16 05:00:00 14.3 30 Sur 59 Sur 0 -- -- 56
2021-02-16 04:00:00 14.8 37 Sur 75 Sur 0 -- -- 56
2021-02-16 03:00:00 15.1 30 Sur 66 Sudeste 0 -- -- 56
2021-02-16 02:00:00 15.1 36 Sur 72 Sur 0 -- -- 56
2021-02-16 01:00:00 15 41 Sur 64 Sur 0 -- -- 56
2021-02-16 00:00:00 14.3 33 Sur 59 Sur 0 -- -- 58
2021-02-15 23:00:00 15.2 27 Sur 66 Sur 0 -- -- 57
2021-02-15 22:00:00 15.5 20 Sur 56 Sur 0 -- -- 57
2021-02-15 21:00:00 15 28 Sur 55 Sur 0 -- -- 56
2021-02-15 20:00:00 14.6 15 Sur 38 Sudeste 0 -- -- 56
2021-02-15 19:00:00 15 15 Sur 42 Sur 0 -- -- 53
2021-02-15 18:00:00 16.2 23 Sur 47 Sur 0 -- -- 50
2021-02-15 17:00:00 17.6 23 Sur 52 Sur 0 -- -- 48
2021-02-15 16:00:00 18.1 27 Sur 68 Sudoeste 0 -- -- 48
2021-02-15 15:00:00 18.5 33 Sur 65 Sur 0 -- -- 47
2021-02-15 14:00:00 16.8 39 Sur 67 Sur 0 -- -- 50
2021-02-15 13:00:00 16.3 37 Sur 71 Sur 0 -- -- 52
2021-02-15 12:00:00 15.7 45 Sur 72 Sur 0 -- -- 52
2021-02-15 11:00:00 14.8 43 Sur 75 Sur 0 -- -- 56
2021-02-15 10:00:00 14.1 48 Sur 75 Sur 0 -- -- 59
2021-02-15 09:00:00 13 45 Sur 82 Sur 0 -- -- 60
2021-02-15 08:00:00 12.5 47 Sur 83 Sur 0 -- -- 61
2021-02-15 07:00:00 12.8 47 Sur 78 Sur 0 -- -- 61
2021-02-15 06:00:00 12.9 41 Sur 80 Sur 0 -- -- 61
2021-02-15 05:00:00 12.8 47 Sur 77 Sur 0 -- -- 60
2021-02-15 04:00:00 13 49 Sur 83 Sur 0 -- -- 61
2021-02-15 03:00:00 13.1 55 Sur 85 Sur 0 -- -- 61
2021-02-15 02:00:00 13.4 54 Sur 84 Sur 0 -- -- 62
2021-02-15 01:00:00 13.6 49 Sur 83 Sur 0 -- -- 61
2021-02-15 00:00:00 13.9 56 Sur 87 Sur 0 -- -- 60
2021-02-14 23:00:00 14.6 52 Sur 83 Sudoeste 0 -- -- 59
2021-02-14 22:00:00 14.7 48 Sur 84 Sur 0 -- -- 57
2021-02-14 21:00:00 15.1 54 Sur 84 Sur 0 -- -- 57
2021-02-14 20:00:00 15.4 49 Sur 84 Sur 0 -- -- 57
2021-02-14 19:00:00 15.4 37 Sur 68 Sur 0 -- -- 56
2021-02-14 18:00:00 15.7 38 Sur 67 Sudoeste 0 -- -- 54
2021-02-14 17:00:00 17.7 26 Sur 58 Sur 0 -- -- 49
2021-02-14 16:00:00 18 35 Sur 57 Sur 0 -- -- 47
2021-02-14 15:00:00 18.7 26 Sur 51 Sur 0 -- -- 45
2021-02-14 14:00:00 19.3 20 Sur 59 Sur 0 -- -- 46
2021-02-14 13:00:00 17.5 32 Sur 64 Sur 0 -- -- 51
2021-02-14 12:00:00 16.8 34 Sur 58 Sur 0 -- -- 56
2021-02-14 11:00:00 15.6 31 Sur 49 Sur 0 -- -- 60
2021-02-14 10:00:00 14.1 17 Sur 41 Sur 0 -- -- 71
2021-02-14 09:00:00 9.3 8 Sur 15 Sur 0 -- -- 95
2021-02-14 08:00:00 7.7 12 Sur 18 Sur 0 -- -- 95
2021-02-14 07:00:00 7.9 15 Sur 20 Sur 0 -- -- 95
2021-02-14 06:00:00 7.7 10 Sur 15 Sur 0 -- -- 96
2021-02-14 05:00:00 7.9 10 Sur 15 Sur 0 -- -- 96
2021-02-14 04:00:00 8 12 Sur 18 Sur 0 -- -- 96
2021-02-14 03:00:00 8.3 13 Sur 20 Sur 0 -- -- 96
2021-02-14 02:00:00 7.6 14 Sur 18 Sur 0 -- -- 96
2021-02-14 01:00:00 7.9 14 Sur 17 Sudoeste 0 -- -- 96
2021-02-14 00:00:00 8.1 12 Sur 15 Sur 0 -- -- 96
2021-02-13 23:00:00 8.5 10 Sur 14 Sur 0 -- -- 95
2021-02-13 22:00:00 8.9 10 Sur 14 Sur 0 -- -- 94
2021-02-13 21:00:00 9.3 11 Sur 13 Sur 0 -- -- 92
2021-02-13 20:00:00 10.2 5 Sur 9 Sudoeste 0 -- -- 88
2021-02-13 19:00:00 11.5 0 Calma 10 Este 0 -- -- 83
2021-02-13 18:00:00 13.2 8 Nordeste 15 Nordeste 0 -- -- 81
2021-02-13 17:00:00 14.4 7 Nordeste 13 Norte 0 -- -- 79
2021-02-13 16:00:00 14.4 4 Nordeste 15 Este 0 -- -- 78
2021-02-13 15:00:00 14.2 4 Noroeste 6 Noroeste 0 -- -- 82
2021-02-13 14:00:00 14 0 Calma 14 Noroeste 0 -- -- 79
2021-02-13 13:00:00 14.1 6 Noroeste 12 Noroeste 0 -- -- 77
2021-02-13 08:00:00 8.4 12 Sur 15 Sur 0 -- -- 98
2021-02-13 07:00:00 8.6 10 Sur 13 Sur 0 -- -- 98
2021-02-13 06:00:00 9.1 9 Sur 14 Sur 0 -- -- 98
2021-02-13 05:00:00 8.8 11 Sur 13 Sudoeste 0 -- -- 97
2021-02-13 04:00:00 9.4 10 Sur 12 Sur 0 -- -- 96
2021-02-13 03:00:00 10.3 9 Sudoeste 11 Sur 0 -- -- 94
2021-02-13 02:00:00 10.9 6 Sur 10 Sur 0 -- -- 93
2021-02-13 01:00:00 12.1 3 Sur 14 Oeste 0 -- -- 91
2021-02-13 00:00:00 12.6 7 Noroeste 23 Noroeste 0 -- -- 92
2021-02-12 23:00:00 12.7 5 Oeste 29 Noroeste 0 -- -- 92
2021-02-12 22:00:00 12.5 16 Noroeste 28 Noroeste 0 -- -- 87
2021-02-12 21:00:00 12.9 13 Noroeste 28 Noroeste 0 -- -- 91
2021-02-12 20:00:00 12.6 18 Noroeste 39 Noroeste 0.2 -- -- 90
2021-02-12 19:00:00 12.3 23 Noroeste 62 Noroeste 0.5 -- -- 98
2021-02-12 18:00:00 12.8 37 Noroeste 59 Noroeste 2.7 -- -- 99
2021-02-12 17:00:00 12.7 38 Noroeste 56 Noroeste 1.7 -- -- 98
2021-02-12 16:00:00 13 32 Noroeste 49 Noroeste 0 -- -- 97
2021-02-12 15:00:00 12.8 36 Noroeste 72 Noroeste 0.6 -- -- 96
2021-02-12 14:00:00 12.9 24 Noroeste 38 Noroeste 1.7 -- -- 93
2021-02-12 13:00:00 13.5 16 Noroeste 51 Noroeste 0.1 -- -- 91
2021-02-12 12:00:00 13 33 Noroeste 59 Noroeste 1.1 -- -- 95
2021-02-12 11:00:00 13.2 14 Noroeste 23 Oeste 2.2 -- -- 97
2021-02-12 10:00:00 13.2 5 Sur 12 Sur 0.3 -- -- 97
2021-02-12 09:00:00 13.4 0 Calma 14 Oeste 0.5 -- -- 97
2021-02-12 08:00:00 12.9 9 Noroeste 30 Noroeste 0.7 -- -- 96
2021-02-12 07:00:00 13.2 17 Noroeste 58 Noroeste 2.1 -- -- 91
2021-02-12 06:00:00 16.8 23 Sur 45 Sudoeste 0 -- -- 62
2021-02-12 05:00:00 17.4 15 Sur 37 Sur 0 -- -- 58
2021-02-12 04:00:00 17.4 2 Sudeste 36 Sur 0 -- -- 59
2021-02-12 03:00:00 17.3 18 Sur 38 Sur 0 -- -- 61
2021-02-12 02:00:00 16.7 22 Sur 35 Sudeste 0 -- -- 65
2021-02-12 01:00:00 15.3 6 Sur 12 Sudoeste 0 -- -- 73
2021-02-12 00:00:00 13.9 0 Calma 13 Sudoeste 0 -- -- 85
2021-02-11 23:00:00 11.9 9 Sudoeste 12 Sudoeste 0 -- -- 90
2021-02-11 22:00:00 12.5 4 Sudoeste 6 Sudoeste 0 -- -- 88
2021-02-11 21:00:00 13.3 0 Calma 4 Sur 0 -- -- 84
2021-02-11 20:00:00 14.3 5 Noroeste 10 Noroeste 0 -- -- 80
2021-02-11 19:00:00 15 0 Calma 22 Nordeste 0 -- -- 74
2021-02-11 18:00:00 15.1 13 Nordeste 21 Nordeste 0 -- -- 74
2021-02-11 17:00:00 15.7 0 Calma 10 Sur 0 -- -- 75
2021-02-11 16:00:00 18 0 Calma 14 Sudoeste 0 -- -- 63
2021-02-11 15:00:00 18.3 8 Sur 14 Sur 0 -- -- 63
2021-02-11 14:00:00 21.3 8 Sur 24 Sur 0 -- -- 53
2021-02-11 13:00:00 18.4 12 Sur 21 Sudoeste 0 -- -- 63
2021-02-11 12:00:00 14.9 0 Calma 10 Noroeste 0 -- -- 74
2021-02-11 11:00:00 14.7 0 Calma 17 Sur 0 -- -- 67
2021-02-11 10:00:00 12.2 0 Calma 9 Sur 0 -- -- 76
2021-02-11 09:00:00 10.2 0 Calma 13 Sur 0 -- -- 83
2021-02-11 08:00:00 7.6 8 Sur 14 Sur 0 -- -- 95
2021-02-11 07:00:00 6.7 9 Sur 13 Sur 0 -- -- 95
2021-02-11 06:00:00 6.7 9 Sur 15 Sudoeste 0 -- -- 95
2021-02-11 05:00:00 7.5 10 Sur 13 Sur 0 -- -- 94
2021-02-11 04:00:00 7.6 9 Sur 16 Sur 0 -- -- 93
2021-02-11 03:00:00 8.1 12 Sur 15 Sur 0 -- -- 92
2021-02-11 02:00:00 8.6 11 Sur 15 Sur 0 -- -- 88
2021-02-11 01:00:00 9.4 9 Sur 12 Sur 0 -- -- 83
2021-02-11 00:00:00 11 10 Sur 13 Sur 0 -- -- 80
2021-02-10 23:00:00 11.3 4 Sur 11 Sudoeste 0 -- -- 77
2021-02-10 22:00:00 11.5 2 Sur 15 Oeste 0 -- -- 75
2021-02-10 21:00:00 12.4 6 Sudoeste 15 Sudoeste 0 -- -- 74
2021-02-10 20:00:00 11.6 5 Sur 30 Noroeste 0 -- -- 77
2021-02-10 19:00:00 12.1 20 Noroeste 35 Noroeste 0 -- -- 78
2021-02-10 18:00:00 13.1 13 Noroeste 46 Noroeste 0 -- -- 78
2021-02-10 17:00:00 12.8 16 Noroeste 38 Noroeste 0 -- -- 72
2021-02-10 16:00:00 12.6 15 Noroeste 35 Noroeste 0 -- -- 72
2021-02-10 15:00:00 11.9 17 Oeste 50 Noroeste 0 -- -- 75
2021-02-10 14:00:00 11.7 15 Noroeste 58 Noroeste 0 -- -- 72
2021-02-10 13:00:00 11.7 11 Oeste 35 Oeste 0 -- -- 71
2021-02-10 12:00:00 11.5 7 Oeste 42 Oeste 0.2 -- -- 67
2021-02-10 11:00:00 11 7 Oeste 28 Oeste 0 -- -- 66
2021-02-10 10:00:00 10.7 6 Oeste 24 Oeste 0 -- -- 71
2021-02-10 09:00:00 10.1 6 Oeste 26 Noroeste 0.2 -- -- 77
2021-02-10 08:00:00 9.2 2 Sudoeste 12 Oeste 0 -- -- 83
2021-02-10 07:00:00 9.8 6 Sur 9 Sudoeste 0 -- -- 80
2021-02-10 06:00:00 10.3 0 Calma 13 Noroeste 0 -- -- 77
2021-02-10 05:00:00 11 11 Noroeste 19 Noroeste 0 -- -- 73
2021-02-10 04:00:00 10.2 3 Sudeste 15 Sur 0 -- -- 61
2021-02-10 03:00:00 10.9 8 Sur 21 Sudoeste 0 -- -- 61
2021-02-10 02:00:00 11 13 Sudoeste 22 Sur 0 -- -- 60
2021-02-10 01:00:00 11.4 15 Sur 34 Oeste 0 -- -- 60
2021-02-10 00:00:00 12.3 15 Sudoeste 33 Sudoeste 0 -- -- 59
2021-02-09 23:00:00 12.2 12 Sur 30 Sur 0 -- -- 58
2021-02-09 22:00:00 12.2 13 Sur 31 Sudoeste 0 -- -- 59
2021-02-09 21:00:00 12.1 14 Sudoeste 28 Sudoeste 0 -- -- 59
2021-02-09 20:00:00 12.1 17 Sur 36 Sur 0 -- -- 58
2021-02-09 19:00:00 12.3 12 Sur 39 Sudoeste 0.1 -- -- 58
2021-02-09 18:00:00 13.5 18 Sudoeste 48 Sudoeste 0 -- -- 57
2021-02-09 17:00:00 14.5 16 Sur 35 Sur 0 -- -- 58
2021-02-09 16:00:00 12.6 18 Sur 45 Sur 0 -- -- 73
2021-02-09 15:00:00 13 21 Sur 41 Sudoeste 0.2 -- -- 72
2021-02-09 14:00:00 13 25 Sur 60 Sur 0.1 -- -- 69
2021-02-09 13:00:00 14.3 32 Sur 60 Sur 0 -- -- 54
2021-02-09 12:00:00 14.7 21 Sur 44 Sur 0 -- -- 54
2021-02-09 11:00:00 14.2 21 Sur 60 Sudoeste 0 -- -- 55
2021-02-09 10:00:00 14.6 35 Sudoeste 80 Sudoeste 0 -- -- 55
2021-02-09 09:00:00 13.4 47 Sur 77 Sudoeste 0 -- -- 59
2021-02-09 08:00:00 12.3 14 Sur 38 Sudoeste 0 -- -- 60
2021-02-09 07:00:00 12.6 30 Sur 54 Sur 0.1 -- -- 61
2021-02-09 06:00:00 13 6 Sur 29 Sur 0 -- -- 64
2021-02-09 05:00:00 12 14 Sur 39 Sur 0 -- -- 67
2021-02-09 04:00:00 12 21 Sur 35 Sur 0 -- -- 69
2021-02-09 03:00:00 11 18 Sur 27 Sur 0 -- -- 74
2021-02-09 02:00:00 11 13 Sur 21 Sudoeste 0 -- -- 81
2021-02-09 01:00:00 10 7 Sur 16 Sur 0 -- -- 88
2021-02-09 00:00:00 10.3 11 Sur 14 Sur 0 -- -- 87
2021-02-08 23:00:00 11 6 Sur 17 Sudoeste 0 -- -- 80
2021-02-08 22:00:00 12.5 6 Sudoeste 28 Oeste 0.3 -- -- 77
2021-02-08 21:00:00 12.3 6 Oeste 19 Noroeste 0 -- -- 69
2021-02-08 20:00:00 12.5 6 Oeste 36 Noroeste 0 -- -- 69
2021-02-08 19:00:00 12.3 11 Noroeste 40 Noroeste 0 -- -- 71
2021-02-08 18:00:00 12.8 30 Noroeste 40 Noroeste 0 -- -- 75
2021-02-08 17:00:00 12.9 22 Noroeste 39 Noroeste 0 -- -- 72
2021-02-08 16:00:00 13 15 Noroeste 38 Noroeste 0 -- -- 69
2021-02-08 15:00:00 14.3 18 Noroeste 28 Noroeste 0 -- -- 65
2021-02-08 14:00:00 16.1 2 Oeste 18 Sudoeste 0 -- -- 58
2021-02-08 13:00:00 15.7 2 Sudoeste 23 Oeste 0 -- -- 63
2021-02-08 12:00:00 13.2 7 Sudoeste 20 Sudoeste 0 -- -- 69
2021-02-08 11:00:00 12.7 9 Sudoeste 20 Sudoeste 0.1 -- -- 73
2021-02-08 10:00:00 11.9 8 Sur 26 Sur 0.1 -- -- 78
2021-02-08 09:00:00 12.4 8 Sudoeste 22 Oeste 0.2 -- -- 70
2021-02-08 08:00:00 12.3 9 Sur 26 Sudoeste 0 -- -- 67
2021-02-08 07:00:00 12.3 10 Sur 43 Sudoeste 0 -- -- 68
2021-02-08 06:00:00 12.7 23 Sur 40 Sudoeste 0 -- -- 68
2021-02-08 05:00:00 12.3 24 Sur 37 Sudoeste 0 -- -- 68
2021-02-08 04:00:00 11.6 24 Sur 44 Sur 0.1 -- -- 70
2021-02-08 03:00:00 11.5 28 Sur 46 Sur 0.1 -- -- 70
2021-02-08 02:00:00 11.1 27 Sur 55 Sur 0.2 -- -- 72
2021-02-08 01:00:00 11.1 22 Sur 38 Sur 0 -- -- 71
2021-02-08 00:00:00 9.9 24 Sur 41 Sur 0 -- -- 78
2021-02-07 23:00:00 9.4 3 Sudoeste 13 Sudoeste 0.1 -- -- 90
2021-02-07 22:00:00 8.7 2 Sur 7 Sudoeste 0.3 -- -- 91
2021-02-07 21:00:00 8.9 4 Sur 12 Sur 0.2 -- -- 90
2021-02-07 20:00:00 9.1 7 Sur 11 Sur 0 -- -- 87
2021-02-07 19:00:00 9.4 6 Sur 11 Sur 0.1 -- -- 82
2021-02-07 18:00:00 10.8 2 Sur 17 Noroeste 0.1 -- -- 73
2021-02-07 17:00:00 11.9 10 Noroeste 21 Noroeste 0 -- -- 70
2021-02-07 16:00:00 12.9 11 Noroeste 16 Noroeste 0 -- -- 62
2021-02-07 15:00:00 13.1 5 Noroeste 19 Oeste 0 -- -- 58
2021-02-07 14:00:00 12.4 0 Calma 20 Sudoeste 0 -- -- 59
2021-02-07 13:00:00 12.3 3 Oeste 21 Oeste 0 -- -- 64
2021-02-07 12:00:00 11.3 4 Oeste 23 Oeste 0 -- -- 68
2021-02-07 11:00:00 10 6 Oeste 25 Sudoeste 0 -- -- 71
2021-02-07 10:00:00 9.4 4 Oeste 26 Noroeste 0 -- -- 75
2021-02-07 09:00:00 8.7 6 Sudoeste 25 Oeste 0.2 -- -- 77
2021-02-07 08:00:00 8.6 6 Oeste 25 Sudoeste 0.4 -- -- 77
2021-02-07 07:00:00 8.9 6 Oeste 23 Oeste 0 -- -- 77
2021-02-07 06:00:00 8.6 7 Sudoeste 25 Oeste 0 -- -- 76
2021-02-07 05:00:00 8.4 7 Oeste 23 Oeste 0 -- -- 77
2021-02-07 04:00:00 8.7 8 Sudoeste 26 Noroeste 0 -- -- 77
2021-02-07 03:00:00 8.5 7 Oeste 22 Oeste 0 -- -- 76
2021-02-07 02:00:00 8.6 9 Oeste 32 Noroeste 0 -- -- 75
2021-02-07 01:00:00 8.9 6 Oeste 26 Oeste 0.2 -- -- 78
2021-02-07 00:00:00 8.4 3 Sur 37 Noroeste 1 -- -- 84
2021-02-06 23:00:00 10.2 20 Noroeste 46 Noroeste 0 -- -- 77
2021-02-06 22:00:00 9.5 31 Noroeste 51 Noroeste 0.4 -- -- 78
2021-02-06 21:00:00 9.8 38 Noroeste 58 Noroeste 0 -- -- 77
2021-02-06 20:00:00 10.5 32 Noroeste 43 Noroeste 0 -- -- 77
2021-02-06 19:00:00 10 30 Noroeste 43 Noroeste 0 -- -- 87
2021-02-06 18:00:00 9.6 32 Noroeste 50 Noroeste 0.2 -- -- 98
2021-02-06 17:00:00 9.5 35 Noroeste 64 Noroeste 1.3 -- -- 99
2021-02-06 16:00:00 10 45 Noroeste 67 Noroeste 1.2 -- -- 99
2021-02-06 15:00:00 10.5 42 Noroeste 62 Noroeste 1.8 -- -- 99
2021-02-06 14:00:00 10.6 45 Noroeste 76 Noroeste 5.9 -- -- 99
2021-02-06 13:00:00 12.1 17 Noroeste 24 Noroeste 4.6 -- -- 99
2021-02-06 12:00:00 12.6 6 Nordeste 10 Nordeste 0.8 -- -- 99
2021-02-06 11:00:00 12.2 0 Calma 10 Nordeste 2.2 -- -- 99
2021-02-06 10:00:00 11.9 6 Este 12 Este 1.8 -- -- 99
2021-02-06 09:00:00 11.8 8 Este 18 Este 0 -- -- 99
2021-02-06 08:00:00 11.8 0 Calma 2 Noroeste 0 -- -- 98
2021-02-06 07:00:00 11.8 0 Calma 6 Sudoeste 0 -- -- 98
2021-02-06 06:00:00 11.5 0 Calma -- -- 0.3 -- -- 98
2021-02-06 05:00:00 11.7 0 Calma 10 Noroeste 0.3 -- -- 98
2021-02-06 04:00:00 11.5 0 Calma 6 Sur 0 -- -- 98
2021-02-06 03:00:00 11.5 0 Calma 8 Sur 0 -- -- 98
2021-02-06 02:00:00 11.7 5 Sur 9 Sudeste 0 -- -- 99
2021-02-06 01:00:00 11.8 0 Calma 5 Sur 0.3 -- -- 99
2021-02-06 00:00:00 11.7 0 Calma 8 Sur 0 -- -- 98
2021-02-05 23:00:00 11.9 5 Sur 8 Sudeste 0 -- -- 98
2021-02-05 22:00:00 11.5 0 Calma 5 Norte 0 -- -- 98
2021-02-05 21:00:00 11.7 2 Norte 9 Nordeste 0 -- -- 98
2021-02-05 20:00:00 11.9 5 Nordeste 13 Nordeste 0 -- -- 98
2021-02-05 19:00:00 11.8 6 Norte 15 Nordeste 0 -- -- 98
2021-02-05 18:00:00 11.8 12 Nordeste 19 Nordeste 0 -- -- 98
2021-02-05 17:00:00 12 12 Nordeste 18 Nordeste 0 -- -- 98
2021-02-05 16:00:00 12.2 12 Nordeste 17 Nordeste 0 -- -- 98
2021-02-05 15:00:00 12.9 14 Nordeste 19 Nordeste 0 -- -- 98
2021-02-05 14:00:00 12.9 11 Nordeste 16 Norte 0 -- -- 97
2021-02-05 13:00:00 13.7 8 Noroeste 10 Noroeste 0 -- -- 98
2021-02-05 12:00:00 13.1 5 Norte 12 Noroeste 0 -- -- 98
2021-02-05 11:00:00 13 6 Noroeste 10 Noroeste 0 -- -- 98
2021-02-05 10:00:00 12.6 3 Sur 10 Sur 0 -- -- 99
2021-02-05 09:00:00 12 8 Sudeste 10 Sudeste 0 -- -- 98
2021-02-05 08:00:00 12.1 6 Sur 11 Sur 0.3 -- -- 98
2021-02-05 07:00:00 11.8 0 Calma 10 Sudeste 0.3 -- -- 98
2021-02-05 06:00:00 12.3 6 Sudeste 10 Este 0.3 -- -- 98
2021-02-05 05:00:00 12.1 3 Noroeste 17 Noroeste 0.1 -- -- 98
2021-02-05 04:00:00 12.1 11 Noroeste 18 Noroeste 0 -- -- 98
2021-02-05 03:00:00 12.2 4 Oeste 13 Oeste 0 -- -- 98
2021-02-05 02:00:00 11.7 0 Calma 7 Sur 0 -- -- 97
2021-02-05 01:00:00 12.1 5 Sur 16 Noroeste 0 -- -- 98
2021-02-05 00:00:00 12.2 12 Noroeste 30 Noroeste 0 -- -- 98
2021-02-04 23:00:00 12.1 21 Noroeste 39 Noroeste 0 -- -- 98
2021-02-04 22:00:00 12.7 17 Noroeste 36 Noroeste 0.2 -- -- 98
2021-02-04 21:00:00 13.1 15 Oeste 27 Oeste 0 -- -- 98
2021-02-04 20:00:00 13.1 9 Oeste 24 Oeste 0.6 -- -- 97
2021-02-04 19:00:00 13.3 7 Oeste 18 Noroeste 0.6 -- -- 94
2021-02-04 18:00:00 13.3 6 Oeste 13 Noroeste 0 -- -- 91
2021-02-04 17:00:00 13.7 0 Calma 18 Nordeste 0 -- -- 90
2021-02-04 16:00:00 14.5 4 Nordeste 13 Nordeste 0 -- -- 86
2021-02-04 15:00:00 15.4 0 Calma 9 Noroeste 0 -- -- 81
2021-02-04 14:00:00 15.3 0 Calma 7 Noroeste 0 -- -- 78
2021-02-04 13:00:00 15.2 3 Noroeste 14 Sur 0 -- -- 76
2021-02-04 12:00:00 15.1 10 Sur 14 Sudeste 0 -- -- 75
2021-02-04 11:00:00 15 0 Calma 9 Sur 0 -- -- 72
2021-02-04 10:00:00 15 0 Calma -- -- 0 -- -- 67
2021-02-04 09:00:00 15 0 Calma 21 Sur 0 -- -- 69
2021-02-04 08:00:00 15.4 11 Sur 21 Sudeste 0 -- -- 67
2021-02-04 07:00:00 15.4 5 Sur 14 Sudeste 0 -- -- 65
2021-02-04 06:00:00 15.7 3 Sur 26 Sur 0 -- -- 62
2021-02-04 05:00:00 15.8 12 Sur 24 Sur 0 -- -- 61
2021-02-04 04:00:00 15.5 11 Sur 25 Sudoeste 0 -- -- 69
2021-02-04 03:00:00 15.5 13 Sur 24 Sur 0 -- -- 69
2021-02-04 02:00:00 15.2 17 Sur 32 Sur 0 -- -- 71
2021-02-04 01:00:00 14.9 14 Sur 41 Sur 0 -- -- 71
2021-02-04 00:00:00 15.1 19 Sur 33 Sur 0 -- -- 69
2021-02-03 23:00:00 16.1 13 Sur 38 Sur 0 -- -- 64
2021-02-03 22:00:00 15.4 20 Sur 36 Sur 0 -- -- 66
2021-02-03 21:00:00 13 10 Sur 15 Sur 0 -- -- 77
2021-02-03 20:00:00 13.3 4 Sur 17 Este 0 -- -- 74
2021-02-03 19:00:00 13.9 7 Este 24 Este 0 -- -- 71
2021-02-03 18:00:00 14.3 11 Este 32 Este 0 -- -- 70
2021-02-03 17:00:00 14.9 15 Este 29 Este 0 -- -- 70
2021-02-03 16:00:00 14.6 17 Este 26 Este 0 -- -- 71
2021-02-03 15:00:00 16.4 15 Este 26 Este 0 -- -- 70
2021-02-03 14:00:00 16.7 13 Este 32 Nordeste 0 -- -- 67
2021-02-03 13:00:00 16.9 15 Nordeste 29 Nordeste 0 -- -- 69
2021-02-03 12:00:00 19.2 7 Nordeste 24 Norte 0 -- -- 65
2021-02-03 11:00:00 16.5 4 Nordeste 14 Noroeste 0 -- -- 71
2021-02-03 10:00:00 19.8 10 Sudoeste 28 Sur 0 -- -- 53
2021-02-03 09:00:00 17.4 14 Sudoeste 36 Sudoeste 0 -- -- 54
2021-02-03 08:00:00 17.5 19 Sudoeste 66 Sudoeste 0 -- -- 55
2021-02-03 07:00:00 17.4 35 Sur 58 Sur 0 -- -- 55
2021-02-03 06:00:00 17.4 24 Sudoeste 57 Sur 0 -- -- 53
2021-02-03 05:00:00 17.6 25 Sur 69 Sur 0 -- -- 51
2021-02-03 04:00:00 17.8 41 Sur 69 Sudoeste 0 -- -- 49
2021-02-03 03:00:00 17.3 27 Sur 59 Sur 0 -- -- 51
2021-02-03 02:00:00 18.2 35 Sur 65 Sur 0 -- -- 48
2021-02-03 01:00:00 17.9 40 Sur 75 Sur 0 -- -- 49
2021-02-03 00:00:00 17.9 33 Sur 53 Sudoeste 0 -- -- 54
2021-02-02 23:00:00 17.7 15 Sur 35 Sur 0 -- -- 54
2021-02-02 22:00:00 17.6 17 Sur 51 Sur 0 -- -- 54
2021-02-02 21:00:00 18.3 27 Sur 53 Sudoeste 0 -- -- 52
2021-02-02 20:00:00 16.8 12 Sudeste 37 Sur 0 -- -- 58
2021-02-02 19:00:00 17 19 Sur 54 Sur 0 -- -- 59
2021-02-02 18:00:00 16.2 24 Sur 40 Sur 0.1 -- -- 65
2021-02-02 17:00:00 16.8 24 Sur 37 Sur 0.3 -- -- 61
2021-02-02 16:00:00 18.3 24 Sur 48 Sudoeste 0 -- -- 52
2021-02-02 15:00:00 20.4 29 Sur 49 Sudoeste 0 -- -- 46
2021-02-02 14:00:00 21.5 27 Sur 48 Sudoeste 0 -- -- 48
2021-02-02 13:00:00 19.5 23 Sur 46 Sur 0 -- -- 52
2021-02-02 12:00:00 18.6 30 Sur 53 Sudoeste 0 -- -- 53
2021-02-02 11:00:00 18.2 29 Sur 46 Sudoeste 0 -- -- 56
2021-02-02 10:00:00 17.9 19 Sur 41 Sur 0 -- -- 58
2021-02-02 09:00:00 16.8 20 Sur 42 Sudoeste 0 -- -- 63
2021-02-02 08:00:00 15.9 13 Sur 24 Sur 0 -- -- 71
2021-02-02 07:00:00 12.6 11 Sur 13 Sur 0 -- -- 82
2021-02-02 06:00:00 12.7 8 Sur 18 Sudoeste 0 -- -- 81
2021-02-02 05:00:00 13.1 12 Sur 19 Sur 0 -- -- 80
2021-02-02 04:00:00 13.8 14 Sur 26 Sudoeste 0 -- -- 81
2021-02-02 03:00:00 13.9 14 Sur 23 Sudoeste 0 -- -- 83
2021-02-02 02:00:00 14 9 Sur 12 Sur 0 -- -- 87
2021-02-02 01:00:00 14 5 Sur 13 Sur 0 -- -- 93
2021-02-02 00:00:00 13.5 3 Sudoeste 9 Sur 0 -- -- 95
2021-02-01 23:00:00 13.1 6 Sur 13 Sudeste 0.2 -- -- 96
2021-02-01 22:00:00 13.4 12 Sur 19 Sur 0 -- -- 96
2021-02-01 21:00:00 13.6 6 Sur 12 Sur 0.9 -- -- 95
2021-02-01 20:00:00 13.6 4 Sur 10 Sur 1.9 -- -- 90
2021-02-01 19:00:00 14.8 0 Calma 17 Este 0 -- -- 87
2021-02-01 18:00:00 14.1 6 Nordeste 14 Nordeste 0 -- -- 84
2021-02-01 17:00:00 14.7 3 Oeste 32 Noroeste 0 -- -- 81
2021-02-01 16:00:00 14.5 26 Noroeste 41 Noroeste 0 -- -- 81
2021-02-01 15:00:00 14.5 24 Noroeste 72 Noroeste 0 -- -- 80
2021-02-01 14:00:00 15.2 52 Noroeste 81 Noroeste 0 -- -- 76
2021-02-01 13:00:00 15.2 37 Noroeste 57 Noroeste 0 -- -- 74
2021-02-01 12:00:00 15.4 29 Noroeste 55 Oeste 0 -- -- 72
2021-02-01 11:00:00 15.1 15 Noroeste 54 Noroeste 0 -- -- 69
2021-02-01 10:00:00 14.5 33 Noroeste 62 Noroeste 0 -- -- 69
2021-02-01 09:00:00 14.9 33 Noroeste 70 Noroeste 0 -- -- 64
2021-02-01 08:00:00 15.1 29 Noroeste 71 Noroeste 0 -- -- 58
2021-02-01 07:00:00 15.2 26 Noroeste 62 Noroeste 0 -- -- 60
2021-02-01 06:00:00 14.9 27 Noroeste 57 Noroeste 0 -- -- 64
2021-02-01 05:00:00 15 25 Oeste 63 Noroeste 0 -- -- 66
2021-02-01 04:00:00 14.8 30 Noroeste 69 Noroeste 0 -- -- 66
2021-02-01 03:00:00 14.9 31 Noroeste 65 Noroeste 0 -- -- 65
2021-02-01 02:00:00 14.9 24 Noroeste 57 Noroeste 0 -- -- 68
2021-02-01 01:00:00 14.5 42 Noroeste 89 Noroeste 0 -- -- 67
2021-02-01 00:00:00 15.6 19 Noroeste 61 Noroeste 0 -- -- 64